createdAt,value
2022-12-13T00:00:46.697Z,24.02
2022-12-13T00:03:13.144Z,22.60
2022-12-13T00:05:44.294Z,22.48
2022-12-13T00:08:10.801Z,21.65
2022-12-13T00:10:37.248Z,21.63
2022-12-13T00:13:04.478Z,21.80
2022-12-13T00:15:31.171Z,20.98
2022-12-13T00:17:57.612Z,20.05
2022-12-13T00:20:24.059Z,19.33
2022-12-13T00:22:52.039Z,22.63
2022-12-13T00:25:21.434Z,20.80
2022-12-13T00:27:47.943Z,20.67
2022-12-13T00:30:14.342Z,20.83
2022-12-13T00:32:40.750Z,19.42
2022-12-13T00:35:07.418Z,19.80
2022-12-13T00:37:33.791Z,20.27
2022-12-13T00:40:00.221Z,20.02
2022-12-13T00:42:26.614Z,19.42
2022-12-13T00:44:53.108Z,18.90
2022-12-13T00:47:20.847Z,18.33
2022-12-13T00:49:47.268Z,18.98
2022-12-13T00:52:13.821Z,19.02
2022-12-13T00:54:40.223Z,19.80
2022-12-13T00:57:06.606Z,18.85
2022-12-13T00:59:33.187Z,18.98
2022-12-13T01:01:59.648Z,20.52
2022-12-13T01:04:26.095Z,18.30
2022-12-13T01:06:53.754Z,21.08
2022-12-13T01:09:23.312Z,20.83
2022-12-13T01:11:50.389Z,18.73
2022-12-13T01:14:18.593Z,21.00
2022-12-13T01:16:45.114Z,20.88
2022-12-13T01:19:11.600Z,20.27
2022-12-13T01:21:38.159Z,19.38
2022-12-13T01:24:05.902Z,20.08
2022-12-13T01:26:33.027Z,21.55
2022-12-13T01:28:59.713Z,19.13
2022-12-13T01:31:26.345Z,19.83
2022-12-13T01:33:52.768Z,18.25
2022-12-13T01:36:27.511Z,18.38
2022-12-13T01:38:59.315Z,20.00
2022-12-13T01:41:27.594Z,17.40
2022-12-13T01:44:03.527Z,17.52
2022-12-13T01:46:35.204Z,18.20
2022-12-13T01:49:19.272Z,17.73
2022-12-13T01:51:56.323Z,16.48
2022-12-13T01:54:33.614Z,18.20
2022-12-13T01:57:03.412Z,19.92
2022-12-13T01:59:30.960Z,19.85
2022-12-13T02:02:00.874Z,17.13
2022-12-13T02:04:44.014Z,20.85
2022-12-13T02:07:13.505Z,19.45
2022-12-13T02:09:49.674Z,18.50
2022-12-13T02:12:24.998Z,18.00
2022-12-13T02:15:01.228Z,17.05
2022-12-13T02:17:53.068Z,19.38
2022-12-13T02:20:57.344Z,19.42
2022-12-13T02:23:26.709Z,20.35
2022-12-13T02:26:31.097Z,18.02
2022-12-13T02:29:30.695Z,20.95
2022-12-13T02:32:30.388Z,19.50
2022-12-13T02:35:02.147Z,20.60
2022-12-13T02:37:51.664Z,18.80
2022-12-13T02:40:31.406Z,20.38
2022-12-13T02:43:06.011Z,17.52
2022-12-13T02:45:47.863Z,19.98
2022-12-13T02:48:17.844Z,20.63
2022-12-13T02:50:44.583Z,21.65
2022-12-13T02:53:12.887Z,20.30
2022-12-13T02:55:40.331Z,20.40
2022-12-13T02:58:07.402Z,19.58
2022-12-13T03:00:44.916Z,21.83
2022-12-13T03:03:32.639Z,20.00
2022-12-13T03:06:33.239Z,20.13
2022-12-13T03:09:25.372Z,19.65
2022-12-13T03:12:25.462Z,18.55
2022-12-13T03:15:02.771Z,21.07
2022-12-13T03:17:36.134Z,19.90
2022-12-13T03:20:03.864Z,18.52
2022-12-13T03:22:49.027Z,22.27
2022-12-13T03:25:15.752Z,18.60
2022-12-13T03:27:57.930Z,20.17
2022-12-13T03:30:27.815Z,18.67
2022-12-13T03:32:54.197Z,21.45
2022-12-13T03:35:21.944Z,21.98
2022-12-13T03:37:49.247Z,22.88
2022-12-13T03:40:15.738Z,19.80
2022-12-13T03:42:42.203Z,19.02
2022-12-13T03:45:09.107Z,20.85
2022-12-13T03:47:35.522Z,21.02
2022-12-13T03:50:26.930Z,23.88
2022-12-13T03:52:50.885Z,20.55
2022-12-13T03:55:18.041Z,21.33
2022-12-13T03:57:44.583Z,20.23
2022-12-13T04:00:11.735Z,19.88
2022-12-13T04:02:38.203Z,18.83
2022-12-13T04:05:05.056Z,18.73
2022-12-13T04:07:34.506Z,17.50
2022-12-13T04:10:01.351Z,18.73
2022-12-13T04:12:48.521Z,21.85
2022-12-13T04:15:16.005Z,19.17
2022-12-13T04:17:42.660Z,20.10
2022-12-13T04:20:09.664Z,16.25
2022-12-13T04:22:36.224Z,18.73
2022-12-13T04:25:03.633Z,18.67
2022-12-13T04:27:30.242Z,18.45
2022-12-13T04:29:56.757Z,20.48
2022-12-13T04:32:26.342Z,20.05
2022-12-13T04:35:00.805Z,20.38
2022-12-13T04:37:28.137Z,17.55
2022-12-13T04:39:54.511Z,19.58
2022-12-13T04:42:27.491Z,18.13
2022-12-13T04:44:54.310Z,20.02
2022-12-13T04:47:20.699Z,17.13
2022-12-13T04:49:47.872Z,20.05
2022-12-13T04:52:14.361Z,19.73
2022-12-13T04:54:55.899Z,18.20
2022-12-13T04:57:23.158Z,18.40
2022-12-13T04:59:49.699Z,17.30
2022-12-13T05:02:23.709Z,16.05
2022-12-13T05:04:53.838Z,17.00
2022-12-13T05:07:21.767Z,18.23
2022-12-13T05:09:49.407Z,18.88
2022-12-13T05:12:22.820Z,16.85
2022-12-13T05:14:52.953Z,18.13
2022-12-13T05:17:19.762Z,18.27
2022-12-13T05:19:46.246Z,17.75
2022-12-13T05:22:19.716Z,20.10
2022-12-13T05:24:47.015Z,17.23
2022-12-13T05:27:25.863Z,19.00
2022-12-13T05:30:03.245Z,17.70
2022-12-13T05:32:42.797Z,18.75
2022-12-13T05:35:22.866Z,18.40
2022-12-13T05:37:55.032Z,19.23
2022-12-13T05:40:22.856Z,21.40
2022-12-13T05:42:49.453Z,21.15
2022-12-13T05:45:17.821Z,21.50
2022-12-13T05:47:44.547Z,19.73
2022-12-13T05:50:11.694Z,17.98
2022-12-13T05:52:38.390Z,18.58
2022-12-13T05:55:05.479Z,18.05
2022-12-13T05:57:32.158Z,19.67
2022-12-13T06:00:00.646Z,19.20
2022-12-13T06:02:27.321Z,19.33
2022-12-13T06:04:54.209Z,21.17
2022-12-13T06:07:20.932Z,18.27
2022-12-13T06:09:47.447Z,17.83
2022-12-13T06:12:31.645Z,15.82
2022-12-13T06:15:00.799Z,19.55
2022-12-13T06:17:32.466Z,19.33
2022-12-13T06:19:58.943Z,19.98
2022-12-13T06:22:25.792Z,18.95
2022-12-13T06:24:52.758Z,17.92
2022-12-13T06:27:19.310Z,16.65
2022-12-13T06:29:45.691Z,19.15
2022-12-13T06:32:12.089Z,23.33
2022-12-13T06:34:38.525Z,21.48
2022-12-13T06:37:07.822Z,20.50
2022-12-13T06:39:34.844Z,19.00
2022-12-13T06:42:02.651Z,19.45
2022-12-13T06:44:29.067Z,19.73
2022-12-13T06:47:10.182Z,18.48
2022-12-13T06:49:39.929Z,19.70
2022-12-13T06:52:09.066Z,20.20
2022-12-13T06:54:35.477Z,19.50
2022-12-13T06:57:02.067Z,18.70
2022-12-13T06:59:28.488Z,20.38
2022-12-13T07:01:55.007Z,18.40
2022-12-13T07:04:31.213Z,21.98
2022-12-13T07:07:01.687Z,16.77
2022-12-13T07:11:56.689Z,16.25
2022-12-13T07:14:23.080Z,17.65
2022-12-13T07:16:49.492Z,18.85
2022-12-13T07:19:23.744Z,18.92
2022-12-13T07:21:51.317Z,17.02
2022-12-13T07:24:18.078Z,18.90
2022-12-13T07:26:44.540Z,18.55
2022-12-13T07:29:11.206Z,17.83
2022-12-13T07:31:37.779Z,17.58
2022-12-13T07:34:04.414Z,19.23
2022-12-13T07:36:30.852Z,18.25
2022-12-13T07:38:57.671Z,18.33
2022-12-13T07:41:26.636Z,18.42
2022-12-13T07:43:54.928Z,17.20
2022-12-13T07:46:32.201Z,19.30
2022-12-13T07:49:01.744Z,19.77
2022-12-13T07:51:28.632Z,18.88
2022-12-13T07:53:55.335Z,19.65
2022-12-13T07:56:21.861Z,18.88
2022-12-13T07:58:48.427Z,17.80
2022-12-13T08:01:14.941Z,20.35
2022-12-13T08:03:41.412Z,20.55
2022-12-13T08:06:09.732Z,18.08
2022-12-13T08:08:37.662Z,23.45
2022-12-13T08:11:09.386Z,21.23
2022-12-13T08:13:36.662Z,27.02
2022-12-13T08:16:06.181Z,28.52
2022-12-13T08:18:52.586Z,27.65
2022-12-13T08:21:53.477Z,25.52
2022-12-13T08:24:18.138Z,28.70
2022-12-13T08:26:44.648Z,27.85
2022-12-13T08:29:12.827Z,28.60
2022-12-13T08:31:49.178Z,27.73
2022-12-13T08:34:16.101Z,24.40
2022-12-13T08:36:42.487Z,25.95
2022-12-13T08:39:09.078Z,26.05
2022-12-13T08:41:39.064Z,25.63
2022-12-13T08:44:05.987Z,23.98
2022-12-13T08:46:32.429Z,24.23
2022-12-13T08:48:58.992Z,23.35
2022-12-13T08:51:29.507Z,28.17
2022-12-13T08:54:11.289Z,27.75
2022-12-13T08:56:38.179Z,27.02
2022-12-13T08:59:04.963Z,30.23
2022-12-13T09:01:31.596Z,30.95
2022-12-13T09:03:58.075Z,28.73
2022-12-13T09:06:24.574Z,32.28
2022-12-13T09:08:53.426Z,32.08
2022-12-13T09:11:20.804Z,31.75
2022-12-13T09:13:51.793Z,29.92
2022-12-13T09:16:23.361Z,31.67
2022-12-13T09:18:55.263Z,33.05
2022-12-13T09:21:31.586Z,32.85
2022-12-13T09:24:02.010Z,32.65
2022-12-13T09:26:29.074Z,34.75
2022-12-13T09:29:10.732Z,32.58
2022-12-13T09:31:40.216Z,34.42
2022-12-13T09:34:06.994Z,36.60
2022-12-13T09:36:33.721Z,33.30
2022-12-13T09:39:00.166Z,37.53
2022-12-13T09:41:40.602Z,36.35
2022-12-13T09:44:32.422Z,33.80
2022-12-13T09:47:03.542Z,34.97
2022-12-13T09:49:35.627Z,36.55
2022-12-13T09:52:10.762Z,35.20
2022-12-13T09:54:48.314Z,33.35
2022-12-13T09:57:31.860Z,31.98
2022-12-13T10:00:02.332Z,37.47
2022-12-13T10:02:31.311Z,33.28
2022-12-13T10:05:22.391Z,38.22
2022-12-13T10:07:52.422Z,30.23
2022-12-13T10:10:19.054Z,33.40
2022-12-13T10:12:48.749Z,34.97
2022-12-13T10:15:22.185Z,38.60
2022-12-13T10:17:54.918Z,37.97
2022-12-13T10:20:25.793Z,43.67
2022-12-13T10:23:14.939Z,42.08
2022-12-13T10:25:46.353Z,40.90
2022-12-13T10:28:19.164Z,40.67
2022-12-13T10:30:46.522Z,41.83
2022-12-13T10:33:29.320Z,40.95
2022-12-13T10:36:07.104Z,43.88
2022-12-13T10:38:39.401Z,37.13
2022-12-13T10:41:26.006Z,40.80
2022-12-13T10:44:11.196Z,39.95
2022-12-13T10:46:39.725Z,38.13
2022-12-13T10:49:17.578Z,33.45
2022-12-13T10:51:44.389Z,36.10
2022-12-13T10:54:38.317Z,36.47
2022-12-13T10:57:05.217Z,37.17
2022-12-13T10:59:39.602Z,39.22
2022-12-13T11:02:32.342Z,38.28
2022-12-13T11:05:00.252Z,36.67
2022-12-13T11:07:34.043Z,40.63
2022-12-13T11:10:27.913Z,36.65
2022-12-13T11:13:00.866Z,36.53
2022-12-13T11:15:29.288Z,37.78
2022-12-13T11:18:00.937Z,38.58
2022-12-13T11:20:31.736Z,38.72
2022-12-13T11:23:05.241Z,39.65
2022-12-13T11:25:42.809Z,38.47
2022-12-13T11:28:30.747Z,39.72
2022-12-13T11:31:17.020Z,38.90
2022-12-13T11:34:05.799Z,42.47
2022-12-13T11:36:41.431Z,37.50
2022-12-13T11:39:16.968Z,41.75
2022-12-13T11:42:07.223Z,43.15
2022-12-13T11:45:11.410Z,42.95
2022-12-13T11:47:48.946Z,46.28
2022-12-13T11:50:33.347Z,44.72
2022-12-13T11:53:25.922Z,43.47
2022-12-13T11:55:54.642Z,43.10
2022-12-13T11:59:01.686Z,41.65
2022-12-13T12:01:38.952Z,41.88
2022-12-13T12:04:27.912Z,38.30
2022-12-13T12:07:24.537Z,39.70
2022-12-13T12:09:54.103Z,39.70
2022-12-13T12:12:27.468Z,39.45
2022-12-13T12:15:05.282Z,39.10
2022-12-13T12:17:42.576Z,37.10
2022-12-13T12:20:12.591Z,35.58
2022-12-13T12:23:00.927Z,38.50
2022-12-13T12:25:38.097Z,38.45
2022-12-13T12:28:31.251Z,37.38
2022-12-13T12:31:13.817Z,35.53
2022-12-13T12:33:46.773Z,37.67
2022-12-13T12:36:50.913Z,35.67
2022-12-13T12:39:34.336Z,37.45
2022-12-13T12:42:50.250Z,34.80
2022-12-13T12:51:29.985Z,32.53
2022-12-13T12:54:12.839Z,33.38
2022-12-13T12:56:59.759Z,32.95
2022-12-13T12:59:52.754Z,35.72
2022-12-13T13:02:41.806Z,35.92
2022-12-13T13:05:15.179Z,34.47
2022-12-13T13:07:51.284Z,34.33
2022-12-13T13:10:26.173Z,34.80
2022-12-13T13:13:01.809Z,34.50
2022-12-13T13:15:38.595Z,32.20
2022-12-13T13:18:42.989Z,35.85
2022-12-13T13:21:33.717Z,31.98
2022-12-13T13:24:09.087Z,34.33
2022-12-13T13:26:42.737Z,33.97
2022-12-13T13:29:26.584Z,34.33
2022-12-13T13:32:05.084Z,36.30
2022-12-13T13:34:38.840Z,33.15
2022-12-13T13:37:23.834Z,33.80
2022-12-13T13:40:31.580Z,35.67
2022-12-13T13:43:10.279Z,37.78
2022-12-13T13:45:53.092Z,35.60
2022-12-13T13:48:53.578Z,36.05
2022-12-13T13:54:49.943Z,36.72
2022-12-13T13:58:07.767Z,39.70
2022-12-13T14:00:59.934Z,37.45
2022-12-13T14:04:00.716Z,37.80
2022-12-13T14:06:47.364Z,35.63
2022-12-13T14:09:22.885Z,36.97
2022-12-13T14:12:25.855Z,37.38
2022-12-13T14:15:10.953Z,37.83
2022-12-13T14:18:11.428Z,38.53
2022-12-13T14:20:48.740Z,35.50
2022-12-13T14:23:31.348Z,39.33
2022-12-13T14:26:21.894Z,37.85
2022-12-13T14:28:55.848Z,41.63
2022-12-13T14:31:37.537Z,40.35
2022-12-13T14:34:05.122Z,38.40
2022-12-13T14:36:35.222Z,39.15
2022-12-13T14:39:16.320Z,41.20
2022-12-13T14:41:56.873Z,38.53
2022-12-13T14:44:29.209Z,35.40
2022-12-13T14:47:07.041Z,36.30
2022-12-13T14:49:39.245Z,36.58
2022-12-13T14:52:07.761Z,34.20
2022-12-13T14:54:58.085Z,36.30
2022-12-13T14:57:30.294Z,35.92
2022-12-13T14:59:58.453Z,36.70
2022-12-13T15:02:32.035Z,36.53
2022-12-13T15:05:04.273Z,37.20
2022-12-13T15:07:37.773Z,36.28
2022-12-13T15:10:38.040Z,37.67
2022-12-13T15:13:04.791Z,37.90
2022-12-13T15:15:34.353Z,35.75
2022-12-13T15:18:09.715Z,35.53
2022-12-13T15:20:40.265Z,35.83
2022-12-13T15:23:33.224Z,38.13
2022-12-13T15:26:28.731Z,36.38
2022-12-13T15:28:58.569Z,38.28
2022-12-13T15:31:25.046Z,38.00
2022-12-13T15:33:51.569Z,35.50
2022-12-13T15:36:23.257Z,36.22
2022-12-13T15:39:02.984Z,36.17
2022-12-13T15:41:32.746Z,36.45
2022-12-13T15:44:25.436Z,35.63
2022-12-13T15:46:53.204Z,35.55
2022-12-13T15:49:27.297Z,38.33
2022-12-13T15:52:04.764Z,34.92
2022-12-13T15:54:31.420Z,35.45
2022-12-13T15:57:01.628Z,42.03
2022-12-13T15:59:35.345Z,37.13
2022-12-13T16:02:03.608Z,38.50
2022-12-13T16:04:33.326Z,38.60
2022-12-13T16:07:00.933Z,35.88
2022-12-13T16:09:30.320Z,38.50
2022-12-13T16:12:02.130Z,38.08
2022-12-13T16:14:31.905Z,39.72
2022-12-13T16:17:01.577Z,37.67
2022-12-13T16:19:35.328Z,36.65
2022-12-13T16:22:02.317Z,38.90
2022-12-13T16:24:35.735Z,36.60
2022-12-13T16:27:08.731Z,35.00
2022-12-13T16:29:35.780Z,38.10
2022-12-13T16:32:08.342Z,41.08
2022-12-13T16:34:35.751Z,38.35
2022-12-13T16:37:02.145Z,38.45
2022-12-13T16:39:28.561Z,36.35
2022-12-13T16:41:55.238Z,34.45
2022-12-13T16:44:33.744Z,37.75
2022-12-13T16:47:11.591Z,33.90
2022-12-13T16:49:45.219Z,33.15
2022-12-13T16:52:11.619Z,36.58
2022-12-13T16:54:38.004Z,36.75
2022-12-13T16:57:04.580Z,36.55
2022-12-13T16:59:30.995Z,36.60
2022-12-13T17:01:57.504Z,36.33
2022-12-13T17:04:24.567Z,36.13
2022-12-13T17:06:54.872Z,33.42
2022-12-13T17:09:21.758Z,35.28
2022-12-13T17:11:48.178Z,34.03
2022-12-13T17:14:14.790Z,34.35
2022-12-13T17:16:41.250Z,32.97
2022-12-13T17:19:09.076Z,32.40
2022-12-13T17:21:35.861Z,34.10
2022-12-13T17:24:02.977Z,36.40
2022-12-13T17:26:29.760Z,36.47
2022-12-13T17:28:58.936Z,41.10
2022-12-13T17:31:28.110Z,40.15
2022-12-13T17:33:59.908Z,33.85
2022-12-13T17:36:27.171Z,35.35
2022-12-13T17:38:53.616Z,35.00
2022-12-13T17:41:20.112Z,37.17
2022-12-13T17:43:46.470Z,35.38
2022-12-13T17:46:16.086Z,31.38
2022-12-13T17:48:43.614Z,35.30
2022-12-13T17:51:11.053Z,30.90
2022-12-13T17:53:39.542Z,29.90
2022-12-13T17:56:07.756Z,32.47
2022-12-13T17:58:35.225Z,30.27
2022-12-13T18:01:18.053Z,30.05
2022-12-13T18:03:44.989Z,30.13
2022-12-13T18:06:12.104Z,32.58
2022-12-13T18:08:39.616Z,30.50
2022-12-13T18:11:31.809Z,28.55
2022-12-13T18:13:55.577Z,28.77
2022-12-13T18:16:24.029Z,31.33
2022-12-13T18:18:55.397Z,31.10
2022-12-13T18:21:23.977Z,29.35
2022-12-13T18:23:55.198Z,28.90
2022-12-13T18:26:23.092Z,31.20
2022-12-13T18:28:49.575Z,30.08
2022-12-13T18:31:20.943Z,29.77
2022-12-13T18:33:48.235Z,28.27
2022-12-13T18:36:18.728Z,26.42
2022-12-13T18:38:47.909Z,29.95
2022-12-13T18:41:17.267Z,29.10
2022-12-13T18:43:44.425Z,29.08
2022-12-13T18:46:12.594Z,28.63
2022-12-13T18:48:39.485Z,30.25
2022-12-13T18:51:07.786Z,29.50
2022-12-13T18:53:35.030Z,30.25
2022-12-13T18:56:10.451Z,27.40
2022-12-13T18:58:42.769Z,29.35
2022-12-13T19:01:14.681Z,33.92
2022-12-13T19:03:43.705Z,30.05
2022-12-13T19:06:15.071Z,29.17
2022-12-13T19:08:41.470Z,29.08
2022-12-13T19:11:07.988Z,26.67
2022-12-13T19:13:34.403Z,28.38
2022-12-13T19:16:09.178Z,29.58
2022-12-13T19:18:36.057Z,25.25
2022-12-13T19:21:02.601Z,25.27
2022-12-13T19:23:29.591Z,27.23
2022-12-13T19:25:56.343Z,26.70
2022-12-13T19:28:22.733Z,27.55
2022-12-13T19:30:49.215Z,25.00
2022-12-13T19:33:15.860Z,26.42
2022-12-13T19:35:45.158Z,26.85
2022-12-13T19:38:12.223Z,25.52
2022-12-13T19:40:39.931Z,26.63
2022-12-13T19:43:06.939Z,28.10
2022-12-13T19:45:33.756Z,25.58
2022-12-13T19:48:00.170Z,27.15
2022-12-13T19:50:26.742Z,24.67
2022-12-13T19:52:53.183Z,26.02
2022-12-13T19:55:19.603Z,26.58
2022-12-13T19:57:46.021Z,27.20
2022-12-13T20:00:13.585Z,26.45
2022-12-13T20:02:40.224Z,24.67
2022-12-13T20:05:07.067Z,26.73
2022-12-13T20:07:33.522Z,27.67
2022-12-13T20:09:59.916Z,27.33
2022-12-13T20:12:26.384Z,26.85
2022-12-13T20:14:52.864Z,26.75
2022-12-13T20:17:19.374Z,30.42
2022-12-13T20:19:45.798Z,32.30
2022-12-13T20:22:12.314Z,29.92
2022-12-13T20:24:38.803Z,27.40
2022-12-13T20:27:05.207Z,26.30
2022-12-13T20:29:31.900Z,29.33
2022-12-13T20:31:58.432Z,26.10
2022-12-13T20:34:24.922Z,26.42
2022-12-13T20:36:51.388Z,30.35
2022-12-13T20:39:17.881Z,26.52
2022-12-13T20:41:44.342Z,27.13
2022-12-13T20:44:12.262Z,26.02
2022-12-13T20:46:39.302Z,26.42
2022-12-13T20:49:07.383Z,26.50
2022-12-13T20:51:34.565Z,27.33
2022-12-13T20:54:01.144Z,26.35
2022-12-13T20:56:29.751Z,26.60
2022-12-13T20:58:56.238Z,25.52
2022-12-13T21:01:25.055Z,25.65
2022-12-13T21:03:55.337Z,25.98
2022-12-13T21:06:22.255Z,24.60
2022-12-13T21:08:51.501Z,24.95
2022-12-13T21:11:30.107Z,26.13
2022-12-13T21:14:08.868Z,27.15
2022-12-13T21:19:06.069Z,25.40
2022-12-13T21:21:32.629Z,26.15
2022-12-13T21:23:59.307Z,27.02
2022-12-13T21:26:31.507Z,26.80
2022-12-13T21:29:02.657Z,24.33
2022-12-13T21:31:29.386Z,25.55
2022-12-13T21:33:58.400Z,26.95
2022-12-13T21:36:27.478Z,24.52
2022-12-13T21:38:55.440Z,25.40
2022-12-13T21:41:22.295Z,23.98
2022-12-13T21:43:49.125Z,24.63
2022-12-13T21:46:31.317Z,24.77
2022-12-13T21:49:12.240Z,23.52
2022-12-13T21:51:40.311Z,24.73
2022-12-13T21:54:09.676Z,23.30
2022-12-13T21:56:54.726Z,25.60
2022-12-13T21:59:23.766Z,24.48
2022-12-13T22:02:12.068Z,26.35
2022-12-13T22:04:55.645Z,25.25
2022-12-13T22:07:24.899Z,22.73
2022-12-13T22:09:52.987Z,26.13
2022-12-13T22:12:24.459Z,22.25
2022-12-13T22:14:51.762Z,23.67
2022-12-13T22:17:19.393Z,24.27
2022-12-13T22:19:48.712Z,24.95
2022-12-13T22:22:16.875Z,22.20
2022-12-13T22:24:46.219Z,23.83
2022-12-13T22:27:18.645Z,21.60
2022-12-13T22:29:45.035Z,22.35
2022-12-13T22:32:11.466Z,21.48
2022-12-13T22:34:37.909Z,21.50
2022-12-13T22:37:04.351Z,19.90
2022-12-13T22:39:31.117Z,22.42
2022-12-13T22:41:57.525Z,22.95
2022-12-13T22:44:23.983Z,21.83
2022-12-13T22:46:50.614Z,20.95
2022-12-13T22:49:17.202Z,19.10
2022-12-13T22:51:43.721Z,20.35
2022-12-13T22:54:10.485Z,19.88
2022-12-13T22:56:37.185Z,19.13
2022-12-13T22:59:04.517Z,18.63
2022-12-13T23:01:33.335Z,20.45
2022-12-13T23:04:00.441Z,18.45
2022-12-13T23:06:29.077Z,19.05
2022-12-13T23:08:57.785Z,19.20
2022-12-13T23:11:43.337Z,18.13
2022-12-13T23:14:11.943Z,19.23
2022-12-13T23:16:38.623Z,19.08
2022-12-13T23:19:39.618Z,19.40
2022-12-13T23:21:54.278Z,18.77
2022-12-13T23:24:20.690Z,18.88
2022-12-13T23:26:47.097Z,18.38
2022-12-13T23:29:13.583Z,19.40
2022-12-13T23:31:41.758Z,17.92
2022-12-13T23:34:08.965Z,19.02
2022-12-13T23:36:35.932Z,19.25
2022-12-13T23:39:04.446Z,17.90
2022-12-13T23:41:33.967Z,18.00
2022-12-13T23:44:00.969Z,17.92
2022-12-13T23:46:33.191Z,17.92
2022-12-13T23:49:00.402Z,17.27
2022-12-13T23:51:26.853Z,16.52
2022-12-13T23:53:53.445Z,17.20
2022-12-13T23:56:20.811Z,17.83
2022-12-13T23:58:48.031Z,16.60
